Time;durP1;ratioP1;P1;durP2;ratioP2;P2;SDS_P1;SDS_P2;PMS_P1;PMS_P2;Temp;Humidity;BMP_temperature;BMP_pressure;BME280_temperature;BME280_humidity;BME280_pressure;Samples;Min_cycle;Max_cycle;Signal;HPM_P1;HPM_P2
2023/04/20 00:00:25;;;;;;;;;;;7.60;99.90;;;;;;5018387;28;20018;-75
2023/04/20 00:02:52;;;;;;;;;;;7.60;99.90;;;;;;5017472;28;19925;-75
2023/04/20 00:05:19;;;;;;;;;;;7.50;99.90;;;;;;5018016;28;19980;-75
2023/04/20 00:07:47;;;;;;;;;;;7.50;99.90;;;;;;5015357;28;19929;-75
2023/04/20 00:10:14;;;;;;;;;;;7.60;99.90;;;;;;5017686;28;19933;-75
2023/04/20 00:12:42;;;;;;;;;;;7.50;99.90;;;;;;5014657;28;19926;-75
2023/04/20 00:15:10;;;;;;;;;;;7.50;99.90;;;;;;5014001;28;19925;-76
2023/04/20 00:17:37;;;;;;;;;;;7.50;99.90;;;;;;5013407;28;19952;-75
2023/04/20 00:20:04;;;;;;;;;;;7.50;99.90;;;;;;5018730;28;20093;-75
2023/04/20 00:22:31;;;;;;;;;;;7.50;99.90;;;;;;5013898;28;19925;-76
2023/04/20 00:24:58;;;;;;;;;;;7.40;99.90;;;;;;5009221;28;20929;-75
2023/04/20 00:27:24;;;;;;;;;;;7.40;99.90;;;;;;5010122;28;20315;-75
2023/04/20 00:29:53;;;;;;;;;;;7.40;99.90;;;;;;5015781;28;19925;-75
2023/04/20 00:32:19;;;;;;;;;;;7.40;99.90;;;;;;5017141;28;19925;-77
2023/04/20 00:34:48;;;;;;;;;;;7.40;99.90;;;;;;5015613;28;20030;-77
2023/04/20 00:37:16;;;;;;;;;;;7.40;99.90;;;;;;5019344;28;19925;-75
2023/04/20 00:39:44;;;;;;;;;;;7.40;99.90;;;;;;5024485;23;19933;-81
2023/04/20 00:42:11;;;;;;;;;;;7.40;99.90;;;;;;5017418;28;20383;-80
2023/04/20 00:44:38;;;;;;;;;;;7.30;99.90;;;;;;5005048;28;20188;-78
2023/04/20 00:47:06;;;;;;;;;;;7.30;99.90;;;;;;5020132;28;19929;-76
2023/04/20 00:49:33;;;;;;;;;;;7.30;99.90;;;;;;5006261;28;20015;-79
2023/04/20 00:52:00;;;;;;;;;;;7.30;99.90;;;;;;5027412;28;19933;-78
2023/04/20 00:54:29;;;;;;;;;;;7.30;99.90;;;;;;5027670;28;19925;-79
2023/04/20 00:56:57;;;;;;;;;;;7.30;99.90;;;;;;5014202;28;19931;-77
2023/04/20 00:59:24;;;;;;;;;;;7.30;99.90;;;;;;5005964;28;19931;-77
2023/04/20 01:01:52;;;;;;;;;;;7.30;99.90;;;;;;5022472;28;19971;-76
2023/04/20 01:04:21;;;;;;;;;;;7.30;99.90;;;;;;5008155;28;20417;-79
2023/04/20 01:06:47;;;;;;;;;;;7.20;99.90;;;;;;5022176;28;20248;-78
2023/04/20 01:09:14;;;;;;;;;;;7.20;99.90;;;;;;5010550;28;20654;-78
2023/04/20 01:11:41;;;;;;;;;;;7.20;99.90;;;;;;5023108;28;20008;-79
2023/04/20 01:14:08;;;;;;;;;;;7.20;99.90;;;;;;5007372;28;19976;-76
2023/04/20 01:16:35;;;;;;;;;;;7.20;99.90;;;;;;5021239;28;19941;-76
2023/04/20 01:19:02;;;;;;;;;;;7.20;99.90;;;;;;5010606;28;20492;-77
2023/04/20 01:21:34;;;;;;;;;;;7.20;99.90;;;;;;5029634;28;19929;-80
2023/04/20 01:24:03;;;;;;;;;;;7.20;99.90;;;;;;5028079;28;20414;-77
2023/04/20 01:26:32;;;;;;;;;;;7.60;99.90;;;;;;5013512;28;20326;-78
2023/04/20 01:28:59;;;;;;;;;;;7.10;99.90;;;;;;5022011;28;19930;-77
2023/04/20 01:31:26;;;;;;;;;;;7.10;99.90;;;;;;5008883;28;19929;-79
2023/04/20 01:33:53;;;;;;;;;;;7.10;99.90;;;;;;5023920;28;19983;-76
2023/04/20 01:36:20;;;;;;;;;;;7.10;99.90;;;;;;5024404;28;20012;-77
2023/04/20 01:38:47;;;;;;;;;;;7.10;99.90;;;;;;5007753;28;20012;-76
2023/04/20 01:41:15;;;;;;;;;;;7.10;99.90;;;;;;5010549;28;20341;-79
2023/04/20 01:43:42;;;;;;;;;;;7.10;99.90;;;;;;5013089;28;19964;-80
2023/04/20 01:46:12;;;;;;;;;;;7.00;99.90;;;;;;5028758;28;20397;-77
2023/04/20 01:48:39;;;;;;;;;;;7.00;99.90;;;;;;5015662;28;19937;-76
2023/04/20 01:51:07;;;;;;;;;;;7.00;99.90;;;;;;5012804;28;19933;-76
2023/04/20 01:53:34;;;;;;;;;;;7.00;99.90;;;;;;5034000;28;20671;-80
2023/04/20 01:56:01;;;;;;;;;;;7.00;99.90;;;;;;5012439;28;20027;-78
2023/04/20 01:58:29;;;;;;;;;;;6.90;99.90;;;;;;5021841;28;19925;-79
2023/04/20 02:00:56;;;;;;;;;;;6.90;99.90;;;;;;5011006;28;19925;-76
2023/04/20 02:03:23;;;;;;;;;;;6.90;99.90;;;;;;5013096;28;19962;-81
2023/04/20 02:05:49;;;;;;;;;;;6.90;99.90;;;;;;5018612;28;19935;-80
2023/04/20 02:08:18;;;;;;;;;;;6.90;99.90;;;;;;5013214;28;19971;-77
2023/04/20 02:10:44;;;;;;;;;;;6.90;99.90;;;;;;5003391;28;19925;-77
2023/04/20 02:13:11;;;;;;;;;;;6.80;99.90;;;;;;5035817;28;19968;-76
2023/04/20 02:15:40;;;;;;;;;;;6.80;99.90;;;;;;5025318;28;20299;-77
2023/04/20 02:18:07;;;;;;;;;;;6.80;99.90;;;;;;5013464;28;19929;-77
2023/04/20 02:20:37;;;;;;;;;;;6.80;99.90;;;;;;5032931;28;19965;-82
2023/04/20 02:23:04;;;;;;;;;;;6.80;99.90;;;;;;5010561;28;20028;-80
2023/04/20 02:25:31;;;;;;;;;;;6.80;99.90;;;;;;5027341;28;19925;-80
2023/04/20 02:27:58;;;;;;;;;;;6.80;99.90;;;;;;5031488;28;19936;-77
2023/04/20 02:30:25;;;;;;;;;;;6.80;99.90;;;;;;5013744;28;19957;-77
2023/04/20 02:32:53;;;;;;;;;;;6.80;99.90;;;;;;5012779;28;19964;-78
2023/04/20 02:35:20;;;;;;;;;;;6.80;99.90;;;;;;5028647;28;20370;-78
2023/04/20 02:37:46;;;;;;;;;;;6.70;99.90;;;;;;5026455;28;19932;-79
2023/04/20 02:40:14;;;;;;;;;;;6.70;99.90;;;;;;5031761;28;19936;-76
2023/04/20 02:42:41;;;;;;;;;;;6.70;99.90;;;;;;5008927;28;19944;-76
2023/04/20 02:45:10;;;;;;;;;;;6.70;99.90;;;;;;5011920;28;19935;-79
2023/04/20 02:47:37;;;;;;;;;;;6.70;99.90;;;;;;5015593;28;19924;-78
2023/04/20 02:50:06;;;;;;;;;;;6.70;99.90;;;;;;5010756;28;20158;-76
2023/04/20 02:52:42;;;;;;;;;;;6.70;99.90;;;;;;5012178;28;19957;-80
2023/04/20 02:55:09;;;;;;;;;;;6.70;99.90;;;;;;5024040;28;19926;-78
2023/04/20 02:57:36;;;;;;;;;;;6.70;99.90;;;;;;5012082;28;19948;-78
2023/04/20 03:00:04;;;;;;;;;;;6.70;99.90;;;;;;5016450;28;19925;-78
2023/04/20 03:02:56;;;;;;;;;;;6.60;99.90;;;;;;5019149;28;19926;-77
2023/04/20 03:05:25;;;;;;;;;;;6.60;99.90;;;;;;5025851;28;19924;-78
2023/04/20 03:07:52;;;;;;;;;;;6.70;99.90;;;;;;5011146;28;19925;-76
2023/04/20 03:10:19;;;;;;;;;;;6.60;99.90;;;;;;5015773;28;19925;-79
2023/04/20 03:13:13;;;;;;;;;;;6.60;99.90;;;;;;5025131;28;19932;-76
2023/04/20 03:15:50;;;;;;;;;;;6.60;99.90;;;;;;5009750;28;19929;-76
2023/04/20 03:18:40;;;;;;;;;;;6.60;99.90;;;;;;5025880;28;19929;-76
2023/04/20 03:21:08;;;;;;;;;;;6.60;99.90;;;;;;5017404;28;19944;-77
2023/04/20 03:23:35;;;;;;;;;;;6.60;99.90;;;;;;5012078;28;19987;-81
2023/04/20 03:26:03;;;;;;;;;;;6.50;99.90;;;;;;5008780;28;20004;-77
2023/04/20 03:28:45;;;;;;;;;;;6.60;99.90;;;;;;5013686;28;20334;-78
2023/04/20 03:31:17;;;;;;;;;;;6.50;99.90;;;;;;5009289;28;19952;-77
2023/04/20 03:33:44;;;;;;;;;;;6.50;99.90;;;;;;5028664;28;19928;-76
2023/04/20 03:36:12;;;;;;;;;;;6.50;99.90;;;;;;5018533;28;19929;-82
2023/04/20 03:38:39;;;;;;;;;;;6.50;99.90;;;;;;5051103;28;19992;-81
2023/04/20 03:41:07;;;;;;;;;;;6.50;99.90;;;;;;5022876;28;19925;-79
2023/04/20 03:43:34;;;;;;;;;;;6.50;99.90;;;;;;5026152;28;19929;-77
2023/04/20 03:46:01;;;;;;;;;;;6.40;99.90;;;;;;5009714;28;19948;-77
2023/04/20 03:48:27;;;;;;;;;;;6.50;99.90;;;;;;5008415;28;19992;-78
2023/04/20 03:50:54;;;;;;;;;;;6.40;99.90;;;;;;5011443;28;20044;-77
2023/04/20 03:53:22;;;;;;;;;;;6.40;99.90;;;;;;5012065;28;20526;-78
2023/04/20 03:55:49;;;;;;;;;;;6.40;99.90;;;;;;5012812;28;19929;-80
2023/04/20 03:58:20;;;;;;;;;;;6.40;99.90;;;;;;5021035;28;19983;-76
2023/04/20 04:01:08;;;;;;;;;;;6.40;99.90;;;;;;5027653;28;19928;-80
2023/04/20 04:03:37;;;;;;;;;;;6.30;99.90;;;;;;5011974;28;20018;-77
2023/04/20 04:06:04;;;;;;;;;;;6.30;99.90;;;;;;5007646;28;19925;-79
2023/04/20 04:08:34;;;;;;;;;;;6.30;99.90;;;;;;5001423;28;20463;-77
2023/04/20 04:11:01;;;;;;;;;;;6.30;99.90;;;;;;5026284;28;19931;-77
2023/04/20 04:13:28;;;;;;;;;;;6.30;99.90;;;;;;5031381;28;19933;-80
2023/04/20 04:15:55;;;;;;;;;;;6.30;99.90;;;;;;5007773;28;19925;-77
2023/04/20 04:18:22;;;;;;;;;;;6.30;99.90;;;;;;5011955;28;19925;-78
2023/04/20 04:20:50;;;;;;;;;;;6.30;99.90;;;;;;5013009;28;19960;-77
2023/04/20 04:23:17;;;;;;;;;;;6.20;99.90;;;;;;5011141;28;19925;-76
2023/04/20 04:26:14;;;;;;;;;;;6.30;99.90;;;;;;5019138;28;19972;-76
2023/04/20 04:28:45;;;;;;;;;;;6.30;99.90;;;;;;5009590;28;20469;-76
2023/04/20 04:31:18;;;;;;;;;;;6.20;99.90;;;;;;5012668;28;20008;-77
2023/04/20 04:33:45;;;;;;;;;;;6.20;99.90;;;;;;5011575;28;20014;-76
2023/04/20 04:36:16;;;;;;;;;;;6.20;99.90;;;;;;5012270;28;19925;-76
2023/04/20 04:38:44;;;;;;;;;;;6.20;99.90;;;;;;5011329;28;19932;-78
2023/04/20 04:41:11;;;;;;;;;;;6.20;99.90;;;;;;5012250;28;19925;-78
2023/04/20 04:43:41;;;;;;;;;;;6.20;99.90;;;;;;5016743;28;19929;-78
2023/04/20 04:46:17;;;;;;;;;;;6.20;99.90;;;;;;5002554;28;19925;-78
2023/04/20 04:48:45;;;;;;;;;;;6.20;99.90;;;;;;5029057;28;19983;-78
2023/04/20 04:51:12;;;;;;;;;;;6.20;99.90;;;;;;5012422;28;19929;-78
2023/04/20 04:53:39;;;;;;;;;;;6.10;99.90;;;;;;5024666;28;19932;-77
2023/04/20 04:56:06;;;;;;;;;;;6.10;99.90;;;;;;5005833;28;20327;-77
2023/04/20 04:58:33;;;;;;;;;;;6.10;99.90;;;;;;5029862;28;19929;-78
2023/04/20 05:01:01;;;;;;;;;;;6.10;99.90;;;;;;5012688;28;20395;-78
2023/04/20 05:03:28;;;;;;;;;;;6.10;99.90;;;;;;5017771;28;20022;-78
2023/04/20 05:05:55;;;;;;;;;;;6.10;99.90;;;;;;5026587;28;19967;-76
2023/04/20 05:08:23;;;;;;;;;;;6.10;99.90;;;;;;5028852;28;20466;-77
2023/04/20 05:10:50;;;;;;;;;;;6.00;99.90;;;;;;5005981;28;20383;-78
2023/04/20 05:13:16;;;;;;;;;;;6.00;99.90;;;;;;5025276;28;19939;-77
2023/04/20 05:15:43;;;;;;;;;;;6.00;99.90;;;;;;5009522;28;19964;-76
2023/04/20 05:18:11;;;;;;;;;;;6.00;99.90;;;;;;5027608;28;20417;-78
2023/04/20 05:20:38;;;;;;;;;;;6.00;99.90;;;;;;5024934;28;19968;-76
2023/04/20 05:23:05;;;;;;;;;;;6.00;99.90;;;;;;5006248;28;20662;-77
2023/04/20 05:25:32;;;;;;;;;;;6.00;99.90;;;;;;5008714;28;20027;-78
2023/04/20 05:27:59;;;;;;;;;;;6.00;99.90;;;;;;5019772;28;20410;-77
2023/04/20 05:30:26;;;;;;;;;;;6.00;99.90;;;;;;5029108;28;19925;-78
2023/04/20 05:32:53;;;;;;;;;;;5.90;99.90;;;;;;5021253;28;20288;-77
2023/04/20 05:35:21;;;;;;;;;;;5.90;99.90;;;;;;5012157;28;19925;-78
2023/04/20 05:37:48;;;;;;;;;;;5.90;99.90;;;;;;5012338;28;20685;-78
2023/04/20 05:40:15;;;;;;;;;;;5.90;99.90;;;;;;5028010;28;19988;-78
2023/04/20 05:42:42;;;;;;;;;;;5.90;99.90;;;;;;5013276;28;19949;-78
2023/04/20 05:45:10;;;;;;;;;;;5.90;99.90;;;;;;5022925;28;20292;-77
2023/04/20 05:47:36;;;;;;;;;;;5.80;99.90;;;;;;5026888;28;19929;-77
2023/04/20 05:50:04;;;;;;;;;;;5.90;99.90;;;;;;5029381;28;19963;-76
2023/04/20 05:52:32;;;;;;;;;;;5.80;99.90;;;;;;5040021;28;19933;-76
2023/04/20 05:54:59;;;;;;;;;;;5.80;99.90;;;;;;5032260;28;20005;-77
2023/04/20 05:57:26;;;;;;;;;;;5.80;99.90;;;;;;5023661;28;19968;-78
2023/04/20 05:59:54;;;;;;;;;;;5.80;99.90;;;;;;5023717;28;19933;-77
2023/04/20 06:02:21;;;;;;;;;;;5.80;99.90;;;;;;5032459;28;20051;-77
2023/04/20 06:04:48;;;;;;;;;;;5.70;99.90;;;;;;5015987;28;19925;-77
2023/04/20 06:07:14;;;;;;;;;;;5.70;99.90;;;;;;5014722;28;19933;-77
2023/04/20 06:09:43;;;;;;;;;;;5.70;99.90;;;;;;5027422;28;20078;-77
2023/04/20 06:12:10;;;;;;;;;;;5.70;99.90;;;;;;5028554;28;19955;-77
2023/04/20 06:14:36;;;;;;;;;;;5.70;99.90;;;;;;5011845;28;19925;-77
2023/04/20 06:17:03;;;;;;;;;;;5.70;99.90;;;;;;5025564;28;19968;-76
2023/04/20 06:19:30;;;;;;;;;;;5.70;99.90;;;;;;5013109;28;19925;-77
2023/04/20 06:21:57;;;;;;;;;;;5.70;99.90;;;;;;5029223;28;19957;-78
2023/04/20 06:24:24;;;;;;;;;;;5.70;99.90;;;;;;5008265;28;19979;-77
2023/04/20 06:26:52;;;;;;;;;;;5.70;99.90;;;;;;5011780;28;19925;-77
2023/04/20 06:29:19;;;;;;;;;;;5.60;99.90;;;;;;5023214;28;19953;-77
2023/04/20 06:31:46;;;;;;;;;;;5.70;99.90;;;;;;5011179;28;20012;-77
2023/04/20 06:34:13;;;;;;;;;;;5.60;99.90;;;;;;5010460;28;20651;-78
2023/04/20 06:36:46;;;;;;;;;;;5.60;99.90;;;;;;5012380;28;20285;-77
2023/04/20 06:39:13;;;;;;;;;;;5.60;99.90;;;;;;5009942;28;19933;-78
2023/04/20 06:41:40;;;;;;;;;;;5.60;99.90;;;;;;5030865;28;19961;-76
2023/04/20 06:44:08;;;;;;;;;;;5.60;99.90;;;;;;5012869;28;19925;-77
2023/04/20 06:46:35;;;;;;;;;;;5.60;99.90;;;;;;5009374;28;19965;-76
2023/04/20 06:49:02;;;;;;;;;;;5.60;99.90;;;;;;5029578;28;19929;-78
2023/04/20 06:51:31;;;;;;;;;;;5.60;99.90;;;;;;5029367;28;19932;-77
2023/04/20 06:53:58;;;;;;;;;;;5.60;99.90;;;;;;5013113;28;19925;-76
2023/04/20 06:56:25;;;;;;;;;;;5.60;99.90;;;;;;5008904;28;20019;-77
2023/04/20 06:58:52;;;;;;;;;;;5.60;99.90;;;;;;5012533;28;20020;-77
2023/04/20 07:01:20;;;;;;;;;;;5.60;99.90;;;;;;5026966;28;19929;-77
2023/04/20 07:03:47;;;;;;;;;;;5.50;99.90;;;;;;5027488;28;19978;-77
2023/04/20 07:06:15;;;;;;;;;;;5.50;99.90;;;;;;5026292;28;19975;-77
2023/04/20 07:08:42;;;;;;;;;;;5.60;99.90;;;;;;5027995;28;19991;-77
2023/04/20 07:11:12;;;;;;;;;;;5.50;99.90;;;;;;5024966;28;20434;-77
2023/04/20 07:13:39;;;;;;;;;;;5.60;99.90;;;;;;5010684;28;19925;-77
2023/04/20 07:16:06;;;;;;;;;;;5.50;99.90;;;;;;5019862;28;20295;-77
2023/04/20 07:18:35;;;;;;;;;;;5.50;99.90;;;;;;5027769;28;19934;-77
2023/04/20 07:21:02;;;;;;;;;;;5.50;99.90;;;;;;5010191;28;20467;-77
2023/04/20 07:23:29;;;;;;;;;;;5.50;99.90;;;;;;5005606;28;19948;-77
2023/04/20 07:25:55;;;;;;;;;;;5.50;99.90;;;;;;5029152;28;19952;-77
2023/04/20 07:28:22;;;;;;;;;;;5.50;99.90;;;;;;5022521;28;20327;-77
2023/04/20 07:30:49;;;;;;;;;;;5.50;99.90;;;;;;5028048;28;19925;-77
2023/04/20 07:33:16;;;;;;;;;;;5.50;99.90;;;;;;5029272;28;19972;-77
2023/04/20 07:35:44;;;;;;;;;;;5.50;99.90;;;;;;5005629;28;19932;-77
2023/04/20 07:38:11;;;;;;;;;;;5.50;99.90;;;;;;5023963;28;20559;-77
2023/04/20 07:40:38;;;;;;;;;;;5.50;99.90;;;;;;5028141;28;19931;-77
2023/04/20 07:43:04;;;;;;;;;;;5.50;99.90;;;;;;5027847;28;19925;-77
2023/04/20 07:45:33;;;;;;;;;;;5.50;99.90;;;;;;5023243;28;20606;-77
2023/04/20 07:48:01;;;;;;;;;;;5.50;99.90;;;;;;5042008;23;19929;-90
2023/04/20 07:50:28;;;;;;;;;;;5.50;99.90;;;;;;5025577;28;20387;-92
2023/04/20 07:52:56;;;;;;;;;;;5.50;99.90;;;;;;5022517;28;19926;-93
2023/04/20 07:55:23;;;;;;;;;;;5.50;99.90;;;;;;5004094;28;19973;-91
2023/04/20 07:57:50;;;;;;;;;;;5.50;99.90;;;;;;5009008;28;20277;-91
2023/04/20 08:00:18;;;;;;;;;;;5.50;99.90;;;;;;5004448;28;19926;-90
2023/04/20 08:02:45;;;;;;;;;;;5.50;99.90;;;;;;5017722;28;19932;-90
2023/04/20 08:05:12;;;;;;;;;;;5.50;99.90;;;;;;5010913;28;19930;-92
2023/04/20 08:07:39;;;;;;;;;;;5.50;99.90;;;;;;5004000;28;19964;-90
2023/04/20 08:10:08;;;;;;;;;;;5.50;99.90;;;;;;5008864;28;20008;-93
2023/04/20 08:12:35;;;;;;;;;;;5.50;99.90;;;;;;5001432;28;20100;-90
2023/04/20 08:15:05;;;;;;;;;;;5.50;99.90;;;;;;5011304;28;19955;-90
2023/04/20 08:17:32;;;;;;;;;;;5.40;99.90;;;;;;5002579;28;19925;-92
2023/04/20 08:19:59;;;;;;;;;;;5.50;99.90;;;;;;5013296;28;19948;-91
2023/04/20 08:22:28;;;;;;;;;;;5.50;99.90;;;;;;5004577;28;19932;-90
2023/04/20 08:24:55;;;;;;;;;;;5.50;99.90;;;;;;5003590;28;19929;-91
2023/04/20 08:27:24;;;;;;;;;;;5.40;99.90;;;;;;5010766;28;20085;-90
2023/04/20 08:29:51;;;;;;;;;;;5.50;99.90;;;;;;5014206;28;19938;-92
2023/04/20 08:32:21;;;;;;;;;;;5.50;99.90;;;;;;5010520;28;19964;-91
2023/04/20 08:34:48;;;;;;;;;;;5.50;99.90;;;;;;4995517;28;19933;-90
2023/04/20 08:37:15;;;;;;;;;;;5.50;99.90;;;;;;5009362;28;19925;-91
2023/04/20 08:39:42;;;;;;;;;;;5.50;99.90;;;;;;5007157;28;19948;-92
2023/04/20 08:42:09;;;;;;;;;;;5.50;99.90;;;;;;5006706;28;19932;-91
2023/04/20 08:44:37;;;;;;;;;;;5.50;99.90;;;;;;4997061;28;19936;-91
2023/04/20 08:47:04;;;;;;;;;;;5.50;99.90;;;;;;5005843;28;19929;-90
2023/04/20 08:49:31;;;;;;;;;;;5.40;99.90;;;;;;5012797;28;20012;-90
2023/04/20 08:51:58;;;;;;;;;;;5.40;99.90;;;;;;5001545;28;19932;-91
2023/04/20 08:54:25;;;;;;;;;;;5.40;99.90;;;;;;5006599;28;19980;-93
2023/04/20 08:56:52;;;;;;;;;;;5.50;99.90;;;;;;5007637;28;19934;-90
2023/04/20 08:59:19;;;;;;;;;;;5.50;99.90;;;;;;5008672;28;20718;-93
2023/04/20 09:01:48;;;;;;;;;;;5.50;99.90;;;;;;5024266;28;20375;-90
2023/04/20 09:04:15;;;;;;;;;;;5.50;99.90;;;;;;5012926;28;19925;-91
2023/04/20 09:06:43;;;;;;;;;;;5.50;99.90;;;;;;5027611;28;19910;-94
2023/04/20 09:09:11;;;;;;;;;;;5.50;99.90;;;;;;5022383;28;19935;-92
2023/04/20 09:11:37;;;;;;;;;;;5.50;99.90;;;;;;5014669;28;20538;-91
2023/04/20 09:14:05;;;;;;;;;;;5.50;99.90;;;;;;5015086;28;20109;-92
2023/04/20 09:16:33;;;;;;;;;;;5.50;99.90;;;;;;5009762;28;20757;-90
2023/04/20 09:19:01;;;;;;;;;;;5.50;99.90;;;;;;5006641;28;19930;-91
2023/04/20 09:21:30;;;;;;;;;;;5.50;99.90;;;;;;5016753;28;19975;-92
2023/04/20 09:23:57;;;;;;;;;;;5.50;99.90;;;;;;5010653;28;19926;-90
2023/04/20 09:26:24;;;;;;;;;;;5.50;99.90;;;;;;5016162;28;19931;-93
2023/04/20 09:28:51;;;;;;;;;;;5.50;99.90;;;;;;5008969;28;19925;-90
2023/04/20 09:31:18;;;;;;;;;;;5.50;99.90;;;;;;5018864;28;19930;-91
2023/04/20 09:33:45;;;;;;;;;;;5.50;99.90;;;;;;5007428;28;19925;-90
2023/04/20 09:36:13;;;;;;;;;;;5.50;99.90;;;;;;5008268;28;19933;-91
2023/04/20 09:38:40;;;;;;;;;;;5.50;99.90;;;;;;5015644;28;19926;-90
2023/04/20 09:41:07;;;;;;;;;;;5.50;99.90;;;;;;5007891;28;20461;-90
2023/04/20 09:43:35;;;;;;;;;;;5.50;99.90;;;;;;5001260;28;20388;-89
2023/04/20 09:46:02;;;;;;;;;;;5.50;99.90;;;;;;5004653;28;20388;-89
2023/04/20 09:48:30;;;;;;;;;;;5.50;99.90;;;;;;5007628;28;19979;-91
2023/04/20 09:50:57;;;;;;;;;;;5.50;99.90;;;;;;5009210;28;19929;-91
2023/04/20 09:53:25;;;;;;;;;;;5.50;99.90;;;;;;5002433;28;19995;-90
2023/04/20 09:55:52;;;;;;;;;;;5.60;99.90;;;;;;5006864;28;19957;-90
2023/04/20 09:58:19;;;;;;;;;;;5.60;99.90;;;;;;5005315;28;19929;-90
2023/04/20 10:00:46;;;;;;;;;;;5.60;99.90;;;;;;5007036;28;19929;-90
2023/04/20 10:03:16;;;;;;;;;;;5.60;99.90;;;;;;5006914;28;19941;-90
2023/04/20 10:05:43;;;;;;;;;;;5.60;99.90;;;;;;5011939;28;19925;-91
2023/04/20 10:08:10;;;;;;;;;;;5.60;99.90;;;;;;5021675;28;19925;-90
2023/04/20 10:10:44;;;;;;;;;;;5.60;99.90;;;;;;5011051;28;19999;-89
2023/04/20 10:13:11;;;;;;;;;;;5.60;99.90;;;;;;5003107;28;19926;-92
2023/04/20 10:15:39;;;;;;;;;;;5.60;99.90;;;;;;5007484;28;19976;-91
2023/04/20 10:18:17;;;;;;;;;;;5.60;99.90;;;;;;5011935;28;20384;-90
2023/04/20 10:20:44;;;;;;;;;;;5.60;99.90;;;;;;5005430;28;20405;-90
2023/04/20 10:23:13;;;;;;;;;;;5.60;99.90;;;;;;5013136;28;19925;-89
2023/04/20 10:25:40;;;;;;;;;;;5.60;99.90;;;;;;5007315;28;20017;-93
2023/04/20 10:28:09;;;;;;;;;;;5.60;99.90;;;;;;5009206;28;20016;-89
2023/04/20 10:30:37;;;;;;;;;;;5.60;99.90;;;;;;5000740;28;19934;-90
2023/04/20 10:33:05;;;;;;;;;;;5.70;99.90;;;;;;5002052;28;20031;-92
2023/04/20 10:35:41;;;;;;;;;;;5.60;99.90;;;;;;5004163;28;19960;-92
2023/04/20 10:38:09;;;;;;;;;;;5.60;99.90;;;;;;5001299;28;19926;-93
2023/04/20 10:40:36;;;;;;;;;;;5.70;99.90;;;;;;5006806;28;20410;-89
2023/04/20 10:43:02;;;;;;;;;;;5.60;99.90;;;;;;4997521;28;19926;-90
2023/04/20 10:45:40;;;;;;;;;;;5.70;99.90;;;;;;5006504;28;19933;-89
2023/04/20 10:48:08;;;;;;;;;;;5.70;99.90;;;;;;4998839;28;19929;-89
2023/04/20 10:50:35;;;;;;;;;;;5.70;99.90;;;;;;5001927;28;19993;-89
2023/04/20 10:53:02;;;;;;;;;;;5.70;99.90;;;;;;5003018;28;19940;-92
2023/04/20 10:55:30;;;;;;;;;;;5.70;99.90;;;;;;5006038;28;19933;-89
2023/04/20 10:57:57;;;;;;;;;;;5.70;99.90;;;;;;5002481;28;19925;-91
2023/04/20 11:00:25;;;;;;;;;;;5.70;99.90;;;;;;5000590;28;20292;-89
2023/04/20 11:02:55;;;;;;;;;;;5.70;99.90;;;;;;4998355;28;19972;-89
2023/04/20 11:05:23;;;;;;;;;;;5.70;99.90;;;;;;5012355;28;20833;-89
2023/04/20 11:07:51;;;;;;;;;;;5.70;99.90;;;;;;5005572;28;19940;-89
2023/04/20 11:10:18;;;;;;;;;;;5.70;99.90;;;;;;5010750;28;20396;-89
2023/04/20 11:12:45;;;;;;;;;;;5.70;99.90;;;;;;5003483;28;19930;-91
2023/04/20 11:15:12;;;;;;;;;;;5.70;99.90;;;;;;4993210;28;19926;-89
2023/04/20 11:17:39;;;;;;;;;;;5.70;99.90;;;;;;4998130;28;19953;-90
2023/04/20 11:20:09;;;;;;;;;;;5.70;99.90;;;;;;5004142;28;20080;-89
2023/04/20 11:22:37;;;;;;;;;;;5.70;99.90;;;;;;5001934;28;19941;-89
2023/04/20 11:25:05;;;;;;;;;;;5.70;99.90;;;;;;4992886;28;19960;-93
2023/04/20 11:27:32;;;;;;;;;;;5.80;99.90;;;;;;4989919;28;19969;-90
2023/04/20 11:30:03;;;;;;;;;;;5.70;99.90;;;;;;4999333;28;19991;-91
2023/04/20 11:32:30;;;;;;;;;;;5.80;99.90;;;;;;5008642;28;19925;-91
2023/04/20 11:35:00;;;;;;;;;;;5.80;99.90;;;;;;5007373;28;20390;-91
2023/04/20 11:37:31;;;;;;;;;;;5.80;99.90;;;;;;5007534;28;21348;-89
2023/04/20 11:40:03;;;;;;;;;;;5.80;99.90;;;;;;5007956;28;20273;-89
2023/04/20 11:42:30;;;;;;;;;;;5.80;99.90;;;;;;5010661;28;19952;-90
2023/04/20 11:44:57;;;;;;;;;;;5.80;99.90;;;;;;5000574;28;19925;-91
2023/04/20 11:47:23;;;;;;;;;;;5.80;99.90;;;;;;5008395;28;19934;-89
2023/04/20 11:49:50;;;;;;;;;;;5.80;99.90;;;;;;5012814;28;20372;-90
2023/04/20 11:52:17;;;;;;;;;;;5.80;99.90;;;;;;5004957;28;19968;-89
2023/04/20 11:54:45;;;;;;;;;;;5.80;99.90;;;;;;5015950;28;19929;-90
2023/04/20 11:57:12;;;;;;;;;;;5.80;99.90;;;;;;5005147;28;19976;-91
2023/04/20 11:59:41;;;;;;;;;;;5.80;99.90;;;;;;5006377;28;19934;-89
2023/04/20 12:02:08;;;;;;;;;;;5.80;99.90;;;;;;5005919;28;19975;-90
2023/04/20 12:04:35;;;;;;;;;;;5.80;99.90;;;;;;5011183;28;19984;-90
2023/04/20 12:07:02;;;;;;;;;;;5.80;99.90;;;;;;5001193;28;19925;-90
2023/04/20 12:09:34;;;;;;;;;;;5.80;99.90;;;;;;5005663;28;19971;-89
2023/04/20 12:12:03;;;;;;;;;;;5.80;99.90;;;;;;5004798;28;19930;-90
2023/04/20 12:14:32;;;;;;;;;;;5.80;99.90;;;;;;5008769;28;20020;-89
2023/04/20 12:16:59;;;;;;;;;;;5.80;99.90;;;;;;5003012;28;20308;-90
2023/04/20 12:19:26;;;;;;;;;;;5.80;99.90;;;;;;5003946;28;19957;-92
2023/04/20 12:21:52;;;;;;;;;;;5.90;99.90;;;;;;4999911;28;20411;-91
2023/04/20 12:24:19;;;;;;;;;;;5.80;99.90;;;;;;5004378;28;19926;-90
2023/04/20 12:26:46;;;;;;;;;;;5.80;99.90;;;;;;5009940;28;19936;-89
2023/04/20 12:29:14;;;;;;;;;;;5.80;99.90;;;;;;5010628;28;19929;-92
2023/04/20 12:31:41;;;;;;;;;;;5.90;99.90;;;;;;4993798;28;20028;-90
2023/04/20 12:34:08;;;;;;;;;;;5.90;99.90;;;;;;5007663;28;19925;-89
2023/04/20 12:36:36;;;;;;;;;;;5.90;99.90;;;;;;4996721;28;20009;-88
2023/04/20 12:39:03;;;;;;;;;;;5.90;99.90;;;;;;4998355;28;19988;-88
2023/04/20 12:41:30;;;;;;;;;;;5.90;99.90;;;;;;5000375;28;19925;-90
2023/04/20 12:43:57;;;;;;;;;;;5.90;99.90;;;;;;4998279;28;19932;-91
2023/04/20 12:46:25;;;;;;;;;;;5.90;99.90;;;;;;5017662;28;19925;-92
2023/04/20 12:48:52;;;;;;;;;;;5.90;99.90;;;;;;5014824;28;19972;-92
2023/04/20 12:51:18;;;;;;;;;;;5.90;99.90;;;;;;5013213;28;19937;-90
2023/04/20 12:53:45;;;;;;;;;;;5.90;99.90;;;;;;5000640;28;20028;-92
2023/04/20 12:56:13;;;;;;;;;;;5.90;99.90;;;;;;5006737;28;19932;-91
2023/04/20 12:58:40;;;;;;;;;;;5.90;99.90;;;;;;4996440;28;20376;-91
2023/04/20 13:01:07;;;;;;;;;;;5.90;99.90;;;;;;4997614;28;19925;-90
2023/04/20 13:03:35;;;;;;;;;;;5.90;99.90;;;;;;4997621;28;19937;-91
2023/04/20 13:06:02;;;;;;;;;;;5.90;99.90;;;;;;5003952;28;19949;-91
2023/04/20 13:08:29;;;;;;;;;;;5.90;99.90;;;;;;5009789;28;19930;-90
2023/04/20 13:10:56;;;;;;;;;;;5.90;99.90;;;;;;5002974;28;19925;-91
2023/04/20 13:13:23;;;;;;;;;;;6.00;99.90;;;;;;4994927;28;20343;-90
2023/04/20 13:15:50;;;;;;;;;;;5.90;99.90;;;;;;5003928;28;20626;-89
2023/04/20 13:18:17;;;;;;;;;;;5.90;99.90;;;;;;4999538;28;20279;-90
2023/04/20 13:20:45;;;;;;;;;;;6.00;99.90;;;;;;4996195;28;19956;-93
2023/04/20 13:23:12;;;;;;;;;;;6.00;99.90;;;;;;4997824;28;19929;-91
2023/04/20 13:25:39;;;;;;;;;;;6.00;99.90;;;;;;4993837;28;19948;-88
2023/04/20 13:28:06;;;;;;;;;;;6.00;99.90;;;;;;5001257;28;20014;-90
2023/04/20 13:30:33;;;;;;;;;;;6.00;99.90;;;;;;5005524;28;19975;-89
2023/04/20 13:33:00;;;;;;;;;;;6.00;99.90;;;;;;4998363;28;19926;-90
2023/04/20 13:35:27;;;;;;;;;;;6.00;99.90;;;;;;4994436;28;19930;-92
2023/04/20 13:37:55;;;;;;;;;;;6.00;99.90;;;;;;4993871;28;19926;-92
2023/04/20 13:40:22;;;;;;;;;;;6.00;99.90;;;;;;4998354;28;20380;-89
2023/04/20 13:42:49;;;;;;;;;;;6.00;99.90;;;;;;5002187;28;19968;-91
2023/04/20 13:45:16;;;;;;;;;;;6.00;99.90;;;;;;5005937;28;20339;-91
2023/04/20 13:47:43;;;;;;;;;;;6.00;99.90;;;;;;5005235;28;19925;-90
2023/04/20 13:50:10;;;;;;;;;;;6.00;99.90;;;;;;5001166;28;19926;-89
2023/04/20 13:52:37;;;;;;;;;;;6.00;99.90;;;;;;5000507;28;19979;-82
2023/04/20 13:55:05;;;;;;;;;;;6.00;99.90;;;;;;5008256;28;20366;-91
2023/04/20 13:57:32;;;;;;;;;;;6.00;99.90;;;;;;4995070;28;19937;-91
2023/04/20 13:59:59;;;;;;;;;;;6.00;99.90;;;;;;5004906;28;19977;-92
2023/04/20 14:02:26;;;;;;;;;;;6.10;99.90;;;;;;5002429;28;19929;-92
2023/04/20 14:04:53;;;;;;;;;;;6.00;99.90;;;;;;4998587;28;19926;-92
2023/04/20 14:07:20;;;;;;;;;;;6.00;99.90;;;;;;5005285;28;19933;-93
2023/04/20 14:09:47;;;;;;;;;;;6.00;99.90;;;;;;5000141;28;19988;-91
2023/04/20 14:12:16;;;;;;;;;;;6.10;99.90;;;;;;5005054;28;19925;-90
2023/04/20 14:14:43;;;;;;;;;;;6.00;99.90;;;;;;5003535;28;20024;-94
2023/04/20 14:17:10;;;;;;;;;;;6.10;99.90;;;;;;5014207;28;19928;-91
2023/04/20 14:19:37;;;;;;;;;;;6.10;99.90;;;;;;5006739;28;20406;-92
2023/04/20 14:22:04;;;;;;;;;;;6.10;99.90;;;;;;5017756;28;19973;-93
2023/04/20 14:24:31;;;;;;;;;;;6.10;99.90;;;;;;5000877;28;19934;-92
2023/04/20 14:26:58;;;;;;;;;;;6.10;99.90;;;;;;5009143;28;19929;-92
2023/04/20 14:29:26;;;;;;;;;;;6.10;99.90;;;;;;4997636;28;20008;-91
2023/04/20 14:31:53;;;;;;;;;;;6.10;99.90;;;;;;4997947;28;19933;-91
2023/04/20 14:34:20;;;;;;;;;;;6.10;99.90;;;;;;5005877;28;20234;-91